createdAt,value
2019-04-30T00:00:21.238Z,7.8
2019-04-30T00:00:56.910Z,7.8
2019-04-30T00:01:32.547Z,7.8
2019-04-30T00:02:45.296Z,7.8
2019-04-30T00:03:19.631Z,7.7
2019-04-30T00:03:55.615Z,7.7
2019-04-30T00:04:29.788Z,7.7
2019-04-30T00:05:02.796Z,7.7
2019-04-30T00:05:37.403Z,7.7
2019-04-30T00:06:11.997Z,7.7
2019-04-30T00:06:46.613Z,7.7
2019-04-30T00:07:21.185Z,7.7
2019-04-30T00:07:58.393Z,7.7
2019-04-30T00:08:35.338Z,7.7
2019-04-30T00:09:05.538Z,7.7
2019-04-30T00:09:40.668Z,7.7
2019-04-30T00:10:15.516Z,7.7
2019-04-30T00:10:50.373Z,7.7
2019-04-30T00:11:25.506Z,7.7
2019-04-30T00:12:01.363Z,7.7
2019-04-30T00:12:39.257Z,7.7
2019-04-30T00:13:45.911Z,7.7
2019-04-30T00:14:21.292Z,7.7
2019-04-30T00:14:55.229Z,7.6
2019-04-30T00:15:31.394Z,7.6
2019-04-30T00:16:07.606Z,7.6
2019-04-30T00:16:45.026Z,7.6
2019-04-30T00:17:19.816Z,7.6
2019-04-30T00:17:58.407Z,7.6
2019-04-30T00:18:35.191Z,7.6
2019-04-30T00:19:10.541Z,7.6
2019-04-30T00:19:43.583Z,7.6
2019-04-30T00:20:19.241Z,7.6
2019-04-30T00:20:55.503Z,7.6
2019-04-30T00:21:31.582Z,7.6
2019-04-30T00:22:07.254Z,7.6
2019-04-30T00:22:46.949Z,7.5
2019-04-30T00:23:22.580Z,7.5
2019-04-30T00:23:53.132Z,7.5
2019-04-30T00:24:28.268Z,7.5
2019-04-30T00:25:05.242Z,7.5
2019-04-30T00:25:39.710Z,7.5
2019-04-30T00:26:13.130Z,7.5
2019-04-30T00:26:52.163Z,7.5
2019-04-30T00:27:26.259Z,7.5
2019-04-30T00:28:00.173Z,7.5
2019-04-30T00:28:31.546Z,7.5
2019-04-30T00:29:06.654Z,7.5
2019-04-30T00:29:41.811Z,7.5
2019-04-30T00:30:16.922Z,7.5
2019-04-30T00:30:51.517Z,7.5
2019-04-30T00:31:27.398Z,7.5
2019-04-30T00:32:04.197Z,7.5
2019-04-30T00:32:43.375Z,7.5
2019-04-30T00:33:15.105Z,7.5
2019-04-30T00:33:46.637Z,7.4
2019-04-30T00:34:24.578Z,7.4
2019-04-30T00:34:58.993Z,7.4
2019-04-30T00:35:35.518Z,7.4
2019-04-30T00:36:46.608Z,7.4
2019-04-30T00:37:22.663Z,7.4
2019-04-30T00:38:00.076Z,7.4
2019-04-30T00:38:37.651Z,7.3
2019-04-30T00:40:21.623Z,7.3
2019-04-30T00:40:55.702Z,7.3
2019-04-30T00:41:30.294Z,7.3
2019-04-30T00:42:04.992Z,7.3
2019-04-30T00:43:15.536Z,7.3
2019-04-30T00:43:50.717Z,7.3
2019-04-30T00:44:28.179Z,7.3
2019-04-30T00:44:59.528Z,7.3
2019-04-30T00:45:35.312Z,7.3
2019-04-30T00:46:43.115Z,7.3
2019-04-30T00:47:17.722Z,7.2
2019-04-30T00:47:53.406Z,7.2
2019-04-30T00:48:31.166Z,7.2
2019-04-30T00:49:09.718Z,7.2
2019-04-30T00:50:15.445Z,7.2
2019-04-30T00:50:51.099Z,7.2
2019-04-30T00:51:26.747Z,7.2
2019-04-30T00:52:02.404Z,7.2
2019-04-30T00:52:38.052Z,7.2
2019-04-30T00:53:14.727Z,7.2
2019-04-30T00:53:51.087Z,7.3
2019-04-30T00:54:27.858Z,7.3
2019-04-30T00:55:00.321Z,7.3
2019-04-30T00:55:33.174Z,7.3
2019-04-30T00:56:45.482Z,7.3
2019-04-30T00:57:18.623Z,7.2
2019-04-30T00:57:55.765Z,7.2
2019-04-30T00:58:30.510Z,7.2
2019-04-30T00:59:10.349Z,7.2
2019-04-30T00:59:44.504Z,7.2
2019-04-30T01:00:25.015Z,7.2
2019-04-30T01:00:55.467Z,7.1
2019-04-30T01:01:29.246Z,7.1
2019-04-30T01:02:06.050Z,7.1
2019-04-30T01:03:15.381Z,7.1
2019-04-30T01:03:49.536Z,7.1
2019-04-30T01:04:27.980Z,7.1
2019-04-30T01:05:05.143Z,7.1
2019-04-30T01:05:35.332Z,7.1
2019-04-30T01:06:46.122Z,7.1
2019-04-30T01:07:54.979Z,7.0
2019-04-30T01:08:30.194Z,7.0
2019-04-30T01:09:08.564Z,7.0
2019-04-30T01:09:44.450Z,7.0
2019-04-30T01:10:19.489Z,7.0
2019-04-30T01:10:55.581Z,7.0
2019-04-30T01:11:30.538Z,7.0
2019-04-30T01:12:06.168Z,7.0
2019-04-30T01:12:47.200Z,7.0
2019-04-30T01:13:19.167Z,7.0
2019-04-30T01:13:54.154Z,7.0
2019-04-30T01:14:31.901Z,7.0
2019-04-30T01:15:06.369Z,7.0
2019-04-30T01:16:52.441Z,7.0
2019-04-30T01:17:29.845Z,7.0
2019-04-30T01:18:03.750Z,7.0
2019-04-30T01:18:39.034Z,7.0
2019-04-30T01:19:27.142Z,7.0
2019-04-30T01:19:53.106Z,7.0
2019-04-30T01:20:29.013Z,7.0
2019-04-30T01:21:02.857Z,7.0
2019-04-30T01:21:40.083Z,7.0
2019-04-30T01:22:12.751Z,7.0
2019-04-30T01:22:48.721Z,7.0
2019-04-30T01:23:24.076Z,7.0
2019-04-30T01:23:59.237Z,7.0
2019-04-30T01:24:34.856Z,7.0
2019-04-30T01:25:47.910Z,7.0
2019-04-30T01:26:22.771Z,7.0
2019-04-30T01:27:00.668Z,7.0
2019-04-30T01:27:33.646Z,7.0
2019-04-30T01:28:44.947Z,7.0
2019-04-30T01:29:58.220Z,7.0
2019-04-30T01:30:32.410Z,7.0
2019-04-30T01:31:08.933Z,7.0
2019-04-30T01:31:44.228Z,7.0
2019-04-30T01:32:21.646Z,7.0
2019-04-30T01:32:56.899Z,7.0
2019-04-30T01:33:34.432Z,7.0
2019-04-30T01:34:10.227Z,7.0
2019-04-30T01:34:48.435Z,7.0
2019-04-30T01:35:56.497Z,7.0
2019-04-30T01:36:31.557Z,7.0
2019-04-30T01:37:08.734Z,7.0
2019-04-30T01:37:42.859Z,7.0
2019-04-30T01:38:18.857Z,7.0
2019-04-30T01:38:54.145Z,7.0
2019-04-30T01:39:31.527Z,6.9
2019-04-30T01:40:08.016Z,6.9
2019-04-30T01:40:42.738Z,6.9
2019-04-30T01:41:14.154Z,6.9
2019-04-30T01:41:48.945Z,6.9
2019-04-30T01:42:23.867Z,6.9
2019-04-30T01:42:59.351Z,6.9
2019-04-30T01:43:34.778Z,6.9
2019-04-30T01:44:11.803Z,6.9
2019-04-30T01:44:48.352Z,6.9
2019-04-30T01:45:54.120Z,6.9
2019-04-30T01:46:29.156Z,6.8
2019-04-30T01:47:04.914Z,6.8
2019-04-30T01:48:15.659Z,6.9
2019-04-30T01:48:51.896Z,6.9
2019-04-30T01:49:26.767Z,6.9
2019-04-30T01:50:04.794Z,6.9
2019-04-30T01:50:38.534Z,6.9
2019-04-30T01:51:45.898Z,6.9
2019-04-30T01:52:21.027Z,6.9
2019-04-30T01:52:56.155Z,6.9
2019-04-30T01:53:30.757Z,6.9
2019-04-30T01:54:05.905Z,6.9
2019-04-30T01:55:15.876Z,6.9
2019-04-30T01:55:50.217Z,6.9
2019-04-30T01:56:24.818Z,6.9
2019-04-30T01:56:59.489Z,6.9
2019-04-30T01:57:34.580Z,6.8
2019-04-30T01:58:10.219Z,6.9
2019-04-30T01:58:45.330Z,6.8
2019-04-30T01:59:56.134Z,6.9
2019-04-30T02:00:30.759Z,6.9
2019-04-30T02:01:05.851Z,6.9
2019-04-30T02:02:16.104Z,6.9
2019-04-30T02:02:50.692Z,6.9
2019-04-30T02:03:25.845Z,6.9
2019-04-30T02:04:00.980Z,6.9
2019-04-30T02:04:36.106Z,6.9
2019-04-30T02:06:56.059Z,6.9
2019-04-30T02:07:30.701Z,6.9
2019-04-30T02:08:05.282Z,6.9
2019-04-30T02:09:49.601Z,6.9
2019-04-30T02:10:24.746Z,6.9
2019-04-30T02:10:59.860Z,6.9
2019-04-30T02:11:34.535Z,6.9
2019-04-30T02:12:09.596Z,6.9
2019-04-30T02:12:44.709Z,6.9
2019-04-30T02:13:54.454Z,6.9
2019-04-30T02:14:29.589Z,6.9
2019-04-30T02:15:04.164Z,6.9
2019-04-30T02:15:39.292Z,6.9
2019-04-30T02:16:13.898Z,6.9
2019-04-30T02:16:49.659Z,6.9
2019-04-30T02:17:23.106Z,6.9
2019-04-30T02:17:58.675Z,6.9
2019-04-30T02:18:32.338Z,6.9
2019-04-30T02:19:06.940Z,6.9
2019-04-30T02:19:41.525Z,6.9
2019-04-30T02:20:16.124Z,6.9
2019-04-30T02:20:50.747Z,6.9
2019-04-30T02:21:25.867Z,6.9
2019-04-30T02:22:01.018Z,6.9
2019-04-30T02:22:36.128Z,6.9
2019-04-30T02:23:10.719Z,7.0
2019-04-30T02:23:46.910Z,7.0
2019-04-30T02:24:23.079Z,7.0
2019-04-30T02:24:58.730Z,7.0
2019-04-30T02:25:34.914Z,7.0
2019-04-30T02:26:48.365Z,7.0
2019-04-30T02:27:22.903Z,7.0
2019-04-30T02:27:59.284Z,7.0
2019-04-30T02:28:34.737Z,7.1
2019-04-30T02:29:09.865Z,7.1
2019-04-30T02:29:44.977Z,7.1
2019-04-30T02:30:20.958Z,7.1
2019-04-30T02:30:54.741Z,7.1
2019-04-30T02:31:30.922Z,7.1
2019-04-30T02:32:04.979Z,7.1
2019-04-30T02:32:40.160Z,7.1
2019-04-30T02:33:14.704Z,7.1
2019-04-30T02:33:50.321Z,7.0
2019-04-30T02:34:26.001Z,7.0
2019-04-30T02:35:02.222Z,7.0
2019-04-30T02:35:40.472Z,7.0
2019-04-30T02:36:50.192Z,7.0
2019-04-30T02:37:25.831Z,7.0
2019-04-30T02:38:02.029Z,7.0
2019-04-30T02:38:39.576Z,7.0
2019-04-30T02:39:14.898Z,7.0
2019-04-30T02:39:50.336Z,7.0
2019-04-30T02:40:26.180Z,7.0
2019-04-30T02:41:01.863Z,7.0
2019-04-30T02:41:40.841Z,7.0
2019-04-30T02:42:13.713Z,7.0
2019-04-30T02:43:26.027Z,7.0
2019-04-30T02:44:01.679Z,7.0
2019-04-30T02:44:40.528Z,7.0
2019-04-30T02:46:25.321Z,7.0
2019-04-30T02:47:00.982Z,7.0
2019-04-30T02:47:36.670Z,7.0
2019-04-30T02:48:12.290Z,7.0
2019-04-30T02:48:49.914Z,7.0
2019-04-30T02:49:23.590Z,6.9
2019-04-30T02:50:11.247Z,6.9
2019-04-30T02:50:32.797Z,6.9
2019-04-30T02:51:09.929Z,6.9
2019-04-30T02:53:25.805Z,6.9
2019-04-30T02:54:00.610Z,6.9
2019-04-30T02:54:35.004Z,6.9
2019-04-30T02:55:09.618Z,6.9
2019-04-30T02:56:53.473Z,6.9
2019-04-30T02:57:29.891Z,6.9
2019-04-30T02:58:03.688Z,6.9
2019-04-30T02:58:40.969Z,6.9
2019-04-30T03:00:25.773Z,6.8
2019-04-30T03:01:01.819Z,6.8
2019-04-30T03:01:39.901Z,6.8
2019-04-30T03:03:25.608Z,6.8
2019-04-30T03:04:01.244Z,6.8
2019-04-30T03:04:39.357Z,6.8
2019-04-30T03:05:13.480Z,6.9
2019-04-30T03:06:23.628Z,6.9
2019-04-30T03:06:56.369Z,6.9
2019-04-30T03:07:30.967Z,6.9
2019-04-30T03:08:05.592Z,6.9
2019-04-30T03:08:40.490Z,6.9
2019-04-30T03:10:23.465Z,6.9
2019-04-30T03:10:59.977Z,6.9
2019-04-30T03:11:33.189Z,6.9
2019-04-30T03:12:08.716Z,6.8
2019-04-30T03:13:55.276Z,6.8
2019-04-30T03:14:30.901Z,6.8
2019-04-30T03:15:06.572Z,6.8
2019-04-30T03:16:53.562Z,6.8
2019-04-30T03:17:29.416Z,6.8
2019-04-30T03:18:04.867Z,6.8
2019-04-30T03:18:40.473Z,6.7
2019-04-30T03:20:32.428Z,6.7
2019-04-30T03:20:59.776Z,6.7
2019-04-30T03:21:32.965Z,6.7
2019-04-30T03:22:10.013Z,6.7
2019-04-30T03:23:51.368Z,6.7
2019-04-30T03:24:25.964Z,6.7
2019-04-30T03:25:00.582Z,6.7
2019-04-30T03:25:35.178Z,6.8
2019-04-30T03:26:12.875Z,6.8
2019-04-30T03:27:24.685Z,6.7
2019-04-30T03:27:56.755Z,6.7
2019-04-30T03:28:31.340Z,6.7
2019-04-30T03:29:06.457Z,6.7
2019-04-30T03:29:41.072Z,6.7
2019-04-30T03:30:57.106Z,6.7
2019-04-30T03:31:26.461Z,6.7
2019-04-30T03:32:02.478Z,6.8
2019-04-30T03:32:42.270Z,6.7
2019-04-30T03:33:12.931Z,6.7
2019-04-30T03:34:25.093Z,6.7
2019-04-30T03:35:03.038Z,6.8
2019-04-30T03:35:33.410Z,6.8
2019-04-30T03:36:12.266Z,6.8
2019-04-30T03:37:21.402Z,6.8
2019-04-30T03:37:59.171Z,6.8
2019-04-30T03:38:33.225Z,6.8
2019-04-30T03:39:10.738Z,6.8
2019-04-30T03:40:59.945Z,6.8
2019-04-30T03:41:33.345Z,6.8
2019-04-30T03:42:09.895Z,6.8
2019-04-30T03:43:55.214Z,6.8
2019-04-30T03:44:32.301Z,6.8
2019-04-30T03:45:06.430Z,6.8
2019-04-30T03:45:42.232Z,6.8
2019-04-30T03:46:53.408Z,6.8
2019-04-30T03:47:29.976Z,6.8
2019-04-30T03:48:04.190Z,6.8
2019-04-30T03:48:39.822Z,6.8
2019-04-30T03:50:24.705Z,6.7
2019-04-30T03:51:01.094Z,6.7
2019-04-30T03:51:33.917Z,6.7
2019-04-30T03:52:09.966Z,6.7
2019-04-30T03:52:43.095Z,6.7
2019-04-30T03:53:52.318Z,6.7
2019-04-30T03:54:29.054Z,6.7
2019-04-30T03:55:02.812Z,6.7
2019-04-30T03:55:36.129Z,6.7
2019-04-30T03:56:10.700Z,6.7
2019-04-30T03:57:54.536Z,6.7
2019-04-30T03:58:29.314Z,6.7
2019-04-30T03:59:03.746Z,6.7
2019-04-30T03:59:39.609Z,6.7
2019-04-30T04:00:12.937Z,6.7
2019-04-30T04:01:23.214Z,6.8
2019-04-30T04:01:59.515Z,6.8
2019-04-30T04:02:33.964Z,6.8
2019-04-30T04:03:10.178Z,6.8
2019-04-30T04:04:56.054Z,6.7
2019-04-30T04:05:31.190Z,6.7
2019-04-30T04:06:05.779Z,6.8
2019-04-30T04:06:41.963Z,6.8
2019-04-30T04:07:53.802Z,6.8
2019-04-30T04:08:29.974Z,6.8
2019-04-30T04:09:06.152Z,6.8
2019-04-30T04:09:41.833Z,6.8
2019-04-30T04:10:54.151Z,6.8
2019-04-30T04:11:29.976Z,6.8
2019-04-30T04:12:05.974Z,6.8
2019-04-30T04:12:42.165Z,6.8
2019-04-30T04:13:53.987Z,6.8
2019-04-30T04:14:30.153Z,6.8
2019-04-30T04:15:05.869Z,6.8
2019-04-30T04:15:41.993Z,6.8
2019-04-30T04:16:53.814Z,6.9
2019-04-30T04:17:31.059Z,6.9
2019-04-30T04:18:03.003Z,6.9
2019-04-30T04:18:40.095Z,6.9
2019-04-30T04:19:12.864Z,6.9
2019-04-30T04:21:31.164Z,7.0
2019-04-30T04:22:06.801Z,7.0
2019-04-30T04:22:42.453Z,7.0
2019-04-30T04:23:53.741Z,7.1
2019-04-30T04:24:30.189Z,7.1
2019-04-30T04:25:03.519Z,7.2
2019-04-30T04:25:40.014Z,7.3
2019-04-30T04:27:23.484Z,7.3
2019-04-30T04:28:00.317Z,7.4
2019-04-30T04:28:33.727Z,7.4
2019-04-30T04:29:12.403Z,7.4
2019-04-30T04:31:00.011Z,7.5
2019-04-30T04:31:32.520Z,7.6
2019-04-30T04:32:10.539Z,7.6
2019-04-30T04:33:53.015Z,7.8
2019-04-30T04:34:30.233Z,7.8
2019-04-30T04:35:04.861Z,7.8
2019-04-30T04:35:41.026Z,7.8
2019-04-30T04:36:52.313Z,7.8
2019-04-30T04:37:30.076Z,7.8
2019-04-30T04:38:03.630Z,7.8
2019-04-30T04:38:40.220Z,7.9
2019-04-30T04:40:23.109Z,7.9
2019-04-30T04:40:59.921Z,7.9
2019-04-30T04:41:32.290Z,7.9
2019-04-30T04:42:09.554Z,7.9
2019-04-30T04:42:41.515Z,8.0
2019-04-30T04:43:52.826Z,8.0
2019-04-30T04:44:29.440Z,8.0
2019-04-30T04:45:05.151Z,8.0
2019-04-30T04:45:43.726Z,8.0
2019-04-30T04:46:16.992Z,8.1
2019-04-30T04:46:52.121Z,8.1
2019-04-30T04:47:26.777Z,8.1
2019-04-30T04:48:01.831Z,8.1
2019-04-30T04:48:38.974Z,8.1
2019-04-30T04:49:11.590Z,8.1
2019-04-30T04:50:55.367Z,8.1
2019-04-30T04:51:37.903Z,8.1
2019-04-30T04:52:04.728Z,8.1
2019-04-30T04:53:13.832Z,8.1
2019-04-30T04:54:23.012Z,8.1
2019-04-30T04:54:59.670Z,8.1
2019-04-30T04:55:32.203Z,8.1
2019-04-30T04:56:06.809Z,8.1
2019-04-30T04:56:41.425Z,8.1
2019-04-30T04:57:51.665Z,8.2
2019-04-30T04:58:27.306Z,8.2
2019-04-30T04:59:02.964Z,8.3
2019-04-30T04:59:39.333Z,8.3
2019-04-30T05:00:12.187Z,8.3
2019-04-30T05:00:49.273Z,8.4
2019-04-30T05:01:22.465Z,8.4
2019-04-30T05:01:59.816Z,8.4
2019-04-30T05:02:34.246Z,8.4
2019-04-30T05:03:11.556Z,8.4
2019-04-30T05:04:56.364Z,8.3
2019-04-30T05:05:31.469Z,8.3
2019-04-30T05:06:06.623Z,8.3
2019-04-30T05:06:41.212Z,8.3
2019-04-30T05:07:51.447Z,8.3
2019-04-30T05:08:28.398Z,8.3
2019-04-30T05:09:01.655Z,8.3
2019-04-30T05:09:36.314Z,8.3
2019-04-30T05:10:11.422Z,8.4
2019-04-30T05:11:23.296Z,8.4
2019-04-30T05:11:59.429Z,8.4
2019-04-30T05:12:37.372Z,8.4
2019-04-30T05:13:11.266Z,8.4
2019-04-30T05:14:23.631Z,8.4
2019-04-30T05:14:59.716Z,8.4
2019-04-30T05:15:35.437Z,8.4
2019-04-30T05:16:11.667Z,8.4
2019-04-30T05:16:48.764Z,8.4
2019-04-30T05:17:23.465Z,8.4
2019-04-30T05:17:59.332Z,8.4
2019-04-30T05:18:35.273Z,8.4
2019-04-30T05:19:11.444Z,8.4
2019-04-30T05:20:23.265Z,8.4
2019-04-30T05:20:59.474Z,8.4
2019-04-30T05:21:42.498Z,8.4
2019-04-30T05:22:11.288Z,8.4
2019-04-30T05:23:23.118Z,8.4
2019-04-30T05:23:59.275Z,8.5
2019-04-30T05:24:34.415Z,8.5
2019-04-30T05:25:09.663Z,8.5
2019-04-30T05:25:44.143Z,8.5
2019-04-30T05:26:54.421Z,8.5
2019-04-30T05:27:30.271Z,8.5
2019-04-30T05:28:04.122Z,8.5
2019-04-30T05:28:39.405Z,8.5
2019-04-30T05:29:14.388Z,8.5
2019-04-30T05:30:24.119Z,8.5
2019-04-30T05:30:59.412Z,8.5
2019-04-30T05:31:34.370Z,8.6
2019-04-30T05:32:10.047Z,8.6
2019-04-30T05:32:45.663Z,8.6
2019-04-30T05:33:21.336Z,8.6
2019-04-30T05:33:58.683Z,8.6
2019-04-30T05:34:32.094Z,8.7
2019-04-30T05:35:06.694Z,8.7
2019-04-30T05:35:41.307Z,8.7
2019-04-30T05:37:28.402Z,8.8
2019-04-30T05:38:02.885Z,8.9
2019-04-30T05:38:39.149Z,8.9
2019-04-30T05:39:13.132Z,9.0
2019-04-30T05:40:24.408Z,9.0
2019-04-30T05:41:00.055Z,9.1
2019-04-30T05:41:34.697Z,9.1
2019-04-30T05:42:09.268Z,9.2
2019-04-30T05:42:44.920Z,9.2
2019-04-30T05:44:31.901Z,9.3
2019-04-30T05:45:06.502Z,9.3
2019-04-30T05:45:41.103Z,9.4
2019-04-30T05:46:52.399Z,9.4
2019-04-30T05:47:29.042Z,9.4
2019-04-30T05:48:05.254Z,9.4
2019-04-30T05:49:15.546Z,9.5
2019-04-30T05:50:25.260Z,9.5
2019-04-30T05:51:00.373Z,9.5
2019-04-30T05:51:35.536Z,9.5
2019-04-30T05:52:45.316Z,9.5
2019-04-30T05:54:30.632Z,9.5
2019-04-30T05:55:05.226Z,9.5
2019-04-30T05:55:40.367Z,9.5
2019-04-30T05:56:14.951Z,9.5
2019-04-30T05:57:24.676Z,9.6
2019-04-30T05:58:01.450Z,9.6
2019-04-30T05:58:36.120Z,9.6
2019-04-30T05:59:11.125Z,9.6
2019-04-30T06:00:22.408Z,9.7
2019-04-30T06:00:57.011Z,9.7
2019-04-30T06:01:31.623Z,9.7
2019-04-30T06:02:06.260Z,9.7
2019-04-30T06:02:40.847Z,9.7
2019-04-30T06:03:25.098Z,9.7
2019-04-30T06:04:24.624Z,9.8
2019-04-30T06:05:00.301Z,9.8
2019-04-30T06:05:35.981Z,9.8
2019-04-30T06:06:11.620Z,9.8
2019-04-30T06:07:22.886Z,9.9
2019-04-30T06:07:59.190Z,9.9
2019-04-30T06:08:32.090Z,9.9
2019-04-30T06:09:08.018Z,9.9
2019-04-30T06:09:41.974Z,9.9
2019-04-30T06:10:15.419Z,10.0
2019-04-30T06:10:51.746Z,10.0
2019-04-30T06:11:29.235Z,10.0
2019-04-30T06:12:03.409Z,10.0
2019-04-30T06:12:39.591Z,10.0
2019-04-30T06:13:15.835Z,10.0
2019-04-30T06:13:51.405Z,10.1
2019-04-30T06:14:28.513Z,10.1
2019-04-30T06:15:01.637Z,10.1
2019-04-30T06:15:36.761Z,10.2
2019-04-30T06:16:12.430Z,10.2
2019-04-30T06:17:24.771Z,10.2
2019-04-30T06:18:06.739Z,10.3
2019-04-30T06:19:09.646Z,10.3
2019-04-30T06:19:44.251Z,10.4
2019-04-30T06:20:55.025Z,10.4
2019-04-30T06:21:31.201Z,10.4
2019-04-30T06:22:08.472Z,10.5
2019-04-30T06:22:41.973Z,10.5
2019-04-30T06:23:52.225Z,10.6
2019-04-30T06:24:30.142Z,10.6
2019-04-30T06:25:04.047Z,10.6
2019-04-30T06:25:55.128Z,10.6
2019-04-30T06:26:15.354Z,10.6
2019-04-30T06:27:25.618Z,10.7
2019-04-30T06:28:00.225Z,10.7
2019-04-30T06:29:09.461Z,10.8
2019-04-30T06:29:45.068Z,10.8
2019-04-30T06:30:56.378Z,10.8
2019-04-30T06:31:37.178Z,10.8
2019-04-30T06:32:08.619Z,10.8
2019-04-30T06:32:43.956Z,10.8
2019-04-30T06:33:56.201Z,10.8
2019-04-30T06:34:31.862Z,10.8
2019-04-30T06:35:09.150Z,10.8
2019-04-30T06:35:44.211Z,10.8
2019-04-30T06:36:57.088Z,10.8
2019-04-30T06:37:32.213Z,10.8
2019-04-30T06:38:08.546Z,10.8
2019-04-30T06:38:44.040Z,10.8
2019-04-30T06:39:54.818Z,10.9
2019-04-30T06:40:29.958Z,10.9
2019-04-30T06:41:05.065Z,10.9
2019-04-30T06:41:41.028Z,10.9
2019-04-30T06:42:15.458Z,10.9
2019-04-30T06:43:26.099Z,11.0
2019-04-30T06:44:02.297Z,11.0
2019-04-30T06:44:39.790Z,11.0
2019-04-30T06:45:14.113Z,11.0
2019-04-30T06:46:25.933Z,11.0
2019-04-30T06:47:02.127Z,11.0
2019-04-30T06:47:38.892Z,11.0
2019-04-30T06:48:13.928Z,11.1
2019-04-30T06:49:24.181Z,11.1
2019-04-30T06:49:58.796Z,11.1
2019-04-30T06:50:33.400Z,11.1
2019-04-30T06:51:09.054Z,11.1
2019-04-30T06:52:56.721Z,11.2
2019-04-30T06:54:04.240Z,11.2
2019-04-30T06:54:40.353Z,11.2
2019-04-30T06:55:15.980Z,11.3
2019-04-30T06:56:26.260Z,11.4
2019-04-30T06:57:02.442Z,11.4
2019-04-30T06:57:38.361Z,11.5
2019-04-30T06:58:15.399Z,11.5
2019-04-30T06:59:22.397Z,11.7
2019-04-30T06:59:59.452Z,11.7
2019-04-30T07:00:33.528Z,11.8
2019-04-30T07:01:09.473Z,11.8
2019-04-30T07:01:44.498Z,11.8
2019-04-30T07:02:54.742Z,11.9
2019-04-30T07:03:29.359Z,12.0
2019-04-30T07:04:05.009Z,12.0
2019-04-30T07:04:41.871Z,12.0
2019-04-30T07:05:16.312Z,12.1
2019-04-30T07:05:51.423Z,12.1
2019-04-30T07:06:29.529Z,12.2
2019-04-30T07:07:02.729Z,12.2
2019-04-30T07:07:41.151Z,12.2
2019-04-30T07:08:13.521Z,12.2
2019-04-30T07:09:26.644Z,12.3
2019-04-30T07:10:00.517Z,12.4
2019-04-30T07:10:34.045Z,12.4
2019-04-30T07:11:11.114Z,12.4
2019-04-30T07:11:45.891Z,12.4
2019-04-30T07:12:25.588Z,12.5
2019-04-30T07:12:58.953Z,12.5
2019-04-30T07:13:32.296Z,12.5
2019-04-30T07:14:06.879Z,12.6
2019-04-30T07:14:42.530Z,12.6
2019-04-30T07:15:53.832Z,12.7
2019-04-30T07:16:29.808Z,12.7
2019-04-30T07:17:03.055Z,12.7
2019-04-30T07:17:40.373Z,12.8
2019-04-30T07:18:13.296Z,12.8
2019-04-30T07:19:32.745Z,12.8
2019-04-30T07:20:01.722Z,12.9
2019-04-30T07:20:35.915Z,12.9
2019-04-30T07:21:11.041Z,13.0
2019-04-30T07:21:46.709Z,13.0
2019-04-30T07:22:36.451Z,13.0
2019-04-30T07:23:02.290Z,13.1
2019-04-30T07:23:32.580Z,13.1
2019-04-30T07:24:42.312Z,13.1
2019-04-30T07:25:19.326Z,13.1
2019-04-30T07:25:52.043Z,13.1
2019-04-30T07:26:28.884Z,13.1
2019-04-30T07:27:02.808Z,13.1
2019-04-30T07:27:39.922Z,13.1
2019-04-30T07:28:12.044Z,13.1
2019-04-30T07:28:49.371Z,13.1
2019-04-30T07:29:55.836Z,13.0
2019-04-30T07:30:31.491Z,13.0
2019-04-30T07:31:13.438Z,13.0
2019-04-30T07:31:42.796Z,13.0
2019-04-30T07:32:54.094Z,13.0
2019-04-30T07:33:29.766Z,12.9
2019-04-30T07:34:04.368Z,13.0
2019-04-30T07:34:40.029Z,12.9
2019-04-30T07:35:15.151Z,12.9
2019-04-30T07:36:42.064Z,12.9
2019-04-30T07:37:11.703Z,12.9
2019-04-30T07:37:35.835Z,12.9
2019-04-30T07:38:10.261Z,13.0
2019-04-30T07:38:51.653Z,13.0
2019-04-30T07:39:23.380Z,13.0
2019-04-30T07:39:58.867Z,12.9
2019-04-30T07:40:31.795Z,12.9
2019-04-30T07:41:06.439Z,12.9
2019-04-30T07:41:41.024Z,12.9
2019-04-30T07:42:15.603Z,12.9
2019-04-30T07:43:25.334Z,12.8
2019-04-30T07:44:00.993Z,12.8
2019-04-30T07:44:39.246Z,12.8
2019-04-30T07:45:13.355Z,12.8
2019-04-30T07:46:24.657Z,12.8
2019-04-30T07:47:02.014Z,12.8
2019-04-30T07:47:35.981Z,12.8
2019-04-30T07:48:11.622Z,12.8
2019-04-30T07:48:49.933Z,12.8
2019-04-30T07:49:22.898Z,12.8
2019-04-30T07:50:00.622Z,12.8
2019-04-30T07:50:34.684Z,12.9
2019-04-30T07:51:10.151Z,12.9
2019-04-30T07:51:43.619Z,12.9
2019-04-30T07:52:20.800Z,12.9
2019-04-30T07:53:01.292Z,12.9
2019-04-30T07:53:26.697Z,12.9
2019-04-30T07:54:01.302Z,12.8
2019-04-30T07:54:36.961Z,12.8
2019-04-30T07:55:12.602Z,12.8
2019-04-30T07:55:49.347Z,12.8
2019-04-30T07:56:28.141Z,12.8
2019-04-30T07:57:00.516Z,12.8
2019-04-30T07:57:36.288Z,12.8
2019-04-30T07:58:12.477Z,12.8
2019-04-30T07:58:50.328Z,12.8
2019-04-30T07:59:24.261Z,12.8
2019-04-30T08:00:00.712Z,12.8
2019-04-30T08:00:36.096Z,12.8
2019-04-30T08:01:12.290Z,12.8
2019-04-30T08:02:01.386Z,12.8
2019-04-30T08:02:24.600Z,12.8
2019-04-30T08:02:59.964Z,12.8
2019-04-30T08:03:36.225Z,12.8
2019-04-30T08:04:11.059Z,12.8
2019-04-30T08:04:46.719Z,12.8
2019-04-30T08:05:22.354Z,12.8
2019-04-30T08:05:59.781Z,12.7
2019-04-30T08:06:32.697Z,12.7
2019-04-30T08:07:07.232Z,12.7
2019-04-30T08:07:41.896Z,12.7
2019-04-30T08:08:21.398Z,12.7
2019-04-30T08:09:25.619Z,12.7
2019-04-30T08:10:00.761Z,12.6
2019-04-30T08:10:36.931Z,12.6
2019-04-30T08:11:22.908Z,12.6
2019-04-30T08:11:49.168Z,12.6
2019-04-30T08:12:29.888Z,12.6
2019-04-30T08:13:06.104Z,12.6
2019-04-30T08:13:37.526Z,12.6
2019-04-30T08:14:12.549Z,12.6
2019-04-30T08:14:49.550Z,12.6
2019-04-30T08:15:23.707Z,12.7
2019-04-30T08:15:59.627Z,12.7
2019-04-30T08:16:32.914Z,12.7
2019-04-30T08:17:08.815Z,12.7
2019-04-30T08:17:42.124Z,12.7
2019-04-30T08:18:18.462Z,12.7
2019-04-30T08:18:51.329Z,12.7
2019-04-30T08:19:25.950Z,12.7
2019-04-30T08:20:00.558Z,12.7
2019-04-30T08:20:35.140Z,12.7
2019-04-30T08:21:09.748Z,12.7
2019-04-30T08:21:44.346Z,12.7
2019-04-30T08:22:19.587Z,12.7
2019-04-30T08:22:53.557Z,12.7
2019-04-30T08:23:34.532Z,12.7
2019-04-30T08:24:02.746Z,12.7
2019-04-30T08:24:39.035Z,12.7
2019-04-30T08:25:12.498Z,12.7
2019-04-30T08:25:48.815Z,12.7
2019-04-30T08:26:22.834Z,12.7
2019-04-30T08:26:59.044Z,12.7
2019-04-30T08:27:32.488Z,12.7
2019-04-30T08:28:09.076Z,12.7
2019-04-30T08:28:42.733Z,12.7
2019-04-30T08:29:19.306Z,12.7
2019-04-30T08:29:51.942Z,12.7
2019-04-30T08:30:27.055Z,12.7
2019-04-30T08:31:01.153Z,12.7
2019-04-30T08:31:35.756Z,12.7
2019-04-30T08:32:10.855Z,12.8
2019-04-30T08:32:46.567Z,12.7
2019-04-30T08:33:21.652Z,12.8
2019-04-30T08:33:59.075Z,12.8
2019-04-30T08:34:33.467Z,12.8
2019-04-30T08:35:10.014Z,12.8
2019-04-30T08:35:45.317Z,12.8
2019-04-30T08:36:21.505Z,12.8
2019-04-30T08:37:33.326Z,12.8
2019-04-30T08:38:10.770Z,12.8
2019-04-30T08:38:45.727Z,12.8
2019-04-30T08:39:21.325Z,12.8
2019-04-30T08:39:59.364Z,12.8
2019-04-30T08:40:33.675Z,12.8
2019-04-30T08:41:09.429Z,12.8
2019-04-30T08:41:45.485Z,12.8
2019-04-30T08:42:30.561Z,12.9
2019-04-30T08:42:56.287Z,12.9
2019-04-30T08:43:31.418Z,12.9
2019-04-30T08:44:06.527Z,13.0
2019-04-30T08:44:42.168Z,13.0
2019-04-30T08:45:19.635Z,13.0
2019-04-30T08:45:53.484Z,13.0
2019-04-30T08:46:29.144Z,13.1
2019-04-30T08:47:03.762Z,13.1
2019-04-30T08:47:39.450Z,13.1
2019-04-30T08:48:12.946Z,13.1
2019-04-30T08:48:50.711Z,13.1
2019-04-30T08:49:22.347Z,13.1
2019-04-30T08:49:56.759Z,13.1
2019-04-30T08:50:31.389Z,13.1
2019-04-30T08:51:06.508Z,13.1
2019-04-30T08:51:41.191Z,13.1
2019-04-30T08:52:16.208Z,13.2
2019-04-30T08:52:51.916Z,13.2
2019-04-30T08:53:32.344Z,13.2
2019-04-30T08:54:03.777Z,13.2
2019-04-30T08:54:39.855Z,13.2
2019-04-30T08:55:16.933Z,13.2
2019-04-30T08:55:51.695Z,13.3
2019-04-30T08:56:26.804Z,13.3
2019-04-30T08:57:01.939Z,13.3
2019-04-30T08:57:37.075Z,13.4
2019-04-30T08:58:15.042Z,13.4
2019-04-30T08:58:49.050Z,13.4
2019-04-30T08:59:24.035Z,13.4
2019-04-30T08:59:59.678Z,13.5
2019-04-30T09:00:34.369Z,13.5
2019-04-30T09:01:44.005Z,13.6
2019-04-30T09:02:55.880Z,13.6
2019-04-30T09:03:32.051Z,13.7
2019-04-30T09:04:07.652Z,13.7
2019-04-30T09:04:41.771Z,13.7
2019-04-30T09:05:15.812Z,13.8
2019-04-30T09:05:51.479Z,13.8
2019-04-30T09:06:28.789Z,13.9
2019-04-30T09:07:02.264Z,13.9
2019-04-30T09:07:38.678Z,13.9
2019-04-30T09:08:12.493Z,14.0
2019-04-30T09:08:48.968Z,14.0
2019-04-30T09:09:23.959Z,14.0
2019-04-30T09:10:34.094Z,14.1
2019-04-30T09:11:52.791Z,14.1
2019-04-30T09:12:19.557Z,14.1
2019-04-30T09:12:53.530Z,14.2
2019-04-30T09:13:29.227Z,14.3
2019-04-30T09:14:03.793Z,14.3
2019-04-30T09:14:40.544Z,14.4
2019-04-30T09:15:14.572Z,14.5
2019-04-30T09:15:49.698Z,14.6
2019-04-30T09:16:59.948Z,14.7
2019-04-30T09:17:35.072Z,14.7
2019-04-30T09:18:12.504Z,14.7
2019-04-30T09:18:44.838Z,14.7
2019-04-30T09:19:21.179Z,14.8
2019-04-30T09:19:54.527Z,14.9
2019-04-30T09:20:29.679Z,14.9
2019-04-30T09:21:06.527Z,15.0
2019-04-30T09:21:40.428Z,15.0
2019-04-30T09:22:16.096Z,15.0
2019-04-30T09:22:51.733Z,15.0
2019-04-30T09:23:34.208Z,15.0
2019-04-30T09:24:02.522Z,15.0
2019-04-30T09:24:39.158Z,15.0
2019-04-30T09:25:13.824Z,15.0
2019-04-30T09:25:49.823Z,15.0
2019-04-30T09:26:25.136Z,15.0
2019-04-30T09:27:00.789Z,15.1
2019-04-30T09:27:35.372Z,15.1
2019-04-30T09:28:09.988Z,15.1
2019-04-30T09:28:44.607Z,15.1
2019-04-30T09:29:19.238Z,15.1
2019-04-30T09:29:53.817Z,15.1
2019-04-30T09:30:29.899Z,15.1